Time;durP1;ratioP1;P1;durP2;ratioP2;P2;SDS_P1;SDS_P2;PMS_P1;PMS_P2;Temp;Humidity;BMP_temperature;BMP_pressure;BME280_temperature;BME280_humidity;BME280_pressure;Samples;Min_cycle;Max_cycle;Signal;HPM_P1;HPM_P2
2022/04/15 00:00:14;;;;;;;18.98;14.13;;;;;;;7.29;83.48;101221.47;1749802;82;20900;-80
2022/04/15 00:02:43;;;;;;;17.27;12.65;;;;;;;7.31;83.45;101222.27;1749715;82;20940;-80
2022/04/15 00:07:15;;;;;;;19.98;14.03;;;;;;;7.39;83.35;101226.77;1798754;79;22488;-81
2022/04/15 00:09:42;;;;;;;17.52;13.25;;;;;;;7.36;83.12;101221.67;1758739;81;20880;-80
2022/04/15 00:12:17;;;;;;;20.25;12.90;;;;;;;7.36;82.71;101224.70;1758545;80;21261;-81
2022/04/15 00:14:39;;;;;;;17.73;11.70;;;;;;;7.32;82.08;101216.63;1757930;80;20908;-81
2022/04/15 00:17:08;;;;;;;23.73;14.55;;;;;;;7.29;81.92;101219.33;1758335;81;20976;-80
2022/04/15 00:19:36;;;;;;;14.55;10.65;;;;;;;7.23;81.61;101217.34;1758489;81;21347;-81
2022/04/15 00:22:04;;;;;;;15.50;11.30;;;;;;;7.17;81.33;101219.33;1758491;81;20995;-81
2022/04/15 00:24:31;;;;;;;16.17;11.70;;;;;;;7.12;81.70;101219.95;1758740;81;21896;-82
2022/04/15 00:26:57;;;;;;;22.65;11.83;;;;;;;7.09;81.94;101227.41;1758421;81;20864;-81
2022/04/15 00:29:28;;;;;;;15.85;12.43;;;;;;;7.05;82.04;101226.69;1758541;80;21509;-80
2022/04/15 00:31:54;;;;;;;14.70;11.15;;;;;;;7.04;82.02;101229.34;1758951;81;21405;-79
2022/04/15 00:34:20;;;;;;;20.77;11.70;;;;;;;7.02;82.03;101228.54;1758556;80;20924;-80
2022/04/15 00:36:48;;;;;;;19.40;12.03;;;;;;;7.01;82.19;101229.46;1758531;81;21147;-80
2022/04/15 00:39:15;;;;;;;15.53;11.28;;;;;;;7.01;81.93;101234.67;1758610;80;21283;-81
2022/04/15 00:41:43;;;;;;;16.00;11.25;;;;;;;7.01;81.70;101235.52;1758321;81;21362;-80
2022/04/15 00:44:11;;;;;;;14.35;11.40;;;;;;;7.00;81.51;101229.92;1758337;81;20930;-80
2022/04/15 00:46:37;;;;;;;15.48;10.53;;;;;;;6.98;81.54;101229.13;1758489;81;21499;-79
2022/04/15 00:49:04;;;;;;;16.07;11.73;;;;;;;6.95;81.51;101229.21;1758432;81;21220;-80
2022/04/15 00:51:32;;;;;;;15.75;11.75;;;;;;;6.94;81.66;101234.50;1758577;80;20872;-81
2022/04/15 00:53:59;;;;;;;16.02;12.00;;;;;;;6.93;81.64;101230.17;1739372;81;20979;-80
2022/04/15 00:56:29;;;;;;;14.70;11.73;;;;;;;6.94;81.38;101232.73;1758541;81;20897;-80
2022/04/15 00:58:53;;;;;;;16.25;11.33;;;;;;;6.94;80.95;101236.65;1758844;80;20873;-80
2022/04/15 01:01:20;;;;;;;14.25;11.75;;;;;;;6.92;80.92;101237.16;1758633;81;21115;-79
2022/04/15 01:03:48;;;;;;;15.60;11.97;;;;;;;6.90;81.00;101238.95;1758315;81;20924;-80
2022/04/15 01:06:15;;;;;;;17.73;12.25;;;;;;;6.88;80.61;101234.25;1752203;81;21445;-81
2022/04/15 01:08:42;;;;;;;16.55;11.90;;;;;;;6.84;80.33;101236.55;1745364;82;20979;-80
2022/04/15 01:11:08;;;;;;;18.30;13.05;;;;;;;6.80;80.15;101234.95;1745436;82;20995;-80
2022/04/15 01:13:36;;;;;;;15.10;11.97;;;;;;;6.75;79.96;101235.11;1745716;82;21405;-79
2022/04/15 01:16:02;;;;;;;13.75;11.60;;;;;;;6.67;79.76;101236.27;1745494;82;20932;-80
2022/04/15 01:18:29;;;;;;;15.55;11.25;;;;;;;6.61;80.22;101237.34;1734650;82;20964;-81
2022/04/15 01:20:57;;;;;;;15.80;11.55;;;;;;;6.57;80.53;101239.66;1744779;81;20924;-79
2022/04/15 01:23:24;;;;;;;17.52;11.75;;;;;;;6.55;80.79;101229.73;1744940;82;21335;-80
2022/04/15 01:25:51;;;;;;;13.72;10.08;;;;;;;6.53;80.63;101230.23;1744833;82;21119;-80
2022/04/15 01:28:19;;;;;;;14.30;10.55;;;;;;;6.50;80.28;101230.34;1744788;81;20960;-80
2022/04/15 01:30:46;;;;;;;13.90;9.53;;;;;;;6.47;80.34;101227.39;1744923;82;20873;-80
2022/04/15 01:33:13;;;;;;;14.38;11.00;;;;;;;6.46;80.58;101231.34;1744807;82;20932;-79
2022/04/15 01:35:40;;;;;;;13.70;9.85;;;;;;;6.45;80.46;101230.50;1744898;82;20921;-81
2022/04/15 01:38:07;;;;;;;12.85;9.50;;;;;;;6.45;80.37;101227.89;1744899;81;21198;-80
2022/04/15 01:40:35;;;;;;;12.03;10.05;;;;;;;6.46;80.20;101228.73;1744656;81;21359;-81
2022/04/15 01:43:03;;;;;;;10.60;9.50;;;;;;;6.45;80.16;101223.98;1744884;82;20933;-81
2022/04/15 01:45:30;;;;;;;14.93;10.10;;;;;;;6.42;79.88;101231.45;1744700;82;20925;-80
2022/04/15 01:47:57;;;;;;;19.07;10.65;;;;;;;6.40;79.85;101224.14;1744925;82;20920;-81
2022/04/15 01:50:24;;;;;;;16.07;12.30;;;;;;;6.40;79.81;101228.47;1744888;82;21251;-80
2022/04/15 01:52:51;;;;;;;15.50;11.57;;;;;;;6.37;79.33;101233.80;1745028;82;20933;-80
2022/04/15 01:55:17;;;;;;;18.57;13.00;;;;;;;6.32;78.95;101239.61;1744822;82;20892;-81
2022/04/15 01:57:45;;;;;;;16.15;11.88;;;;;;;6.27;78.71;101233.25;1744714;82;20885;-80
2022/04/15 02:00:13;;;;;;;16.60;12.05;;;;;;;6.20;78.38;101227.39;1744980;82;20928;-78
2022/04/15 02:02:42;;;;;;;15.70;11.20;;;;;;;6.14;78.23;101231.48;1744867;82;20988;-79
2022/04/15 02:05:08;;;;;;;17.23;12.35;;;;;;;6.07;78.29;101231.71;1744666;82;20929;-80
2022/04/15 02:07:35;;;;;;;17.87;12.35;;;;;;;5.98;78.40;101236.33;1744732;81;20925;-80
2022/04/15 02:10:04;;;;;;;17.80;14.03;;;;;;;5.91;78.71;101232.61;1744835;82;20935;-80
2022/04/15 02:12:32;;;;;;;16.52;11.22;;;;;;;5.86;78.95;101228.00;1744800;82;20897;-81
2022/04/15 02:14:59;;;;;;;18.27;11.85;;;;;;;5.80;78.92;101232.50;1744735;82;21819;-81
2022/04/15 02:17:25;;;;;;;13.80;10.20;;;;;;;5.75;79.13;101229.63;1744809;82;20955;-80
2022/04/15 02:19:52;;;;;;;24.00;10.55;;;;;;;5.73;79.41;101236.63;1746697;82;20968;-80
2022/04/15 02:22:21;;;;;;;15.75;10.68;;;;;;;5.72;79.59;101242.28;1746811;80;21128;-77
2022/04/15 02:24:47;;;;;;;37.17;26.97;;;;;;;5.72;79.53;101240.14;1747499;79;20969;-78
2022/04/15 02:27:15;;;;;;;15.70;11.60;;;;;;;5.70;79.85;101246.67;1747971;80;21288;-80
2022/04/15 02:29:42;;;;;;;17.12;11.68;;;;;;;5.69;80.00;101246.29;1744793;80;20933;-81
2022/04/15 02:32:12;;;;;;;16.10;10.63;;;;;;;5.70;79.76;101246.67;1744875;80;20948;-79
2022/04/15 02:34:39;;;;;;;16.97;11.63;;;;;;;5.71;79.55;101256.63;1744711;81;20976;-80
2022/04/15 02:37:10;;;;;;;16.50;10.68;;;;;;;5.71;79.36;101259.23;1745307;82;20854;-81
2022/04/15 02:39:37;;;;;;;19.65;12.13;;;;;;;5.71;79.18;101257.93;1745029;82;21414;-80
2022/04/15 02:42:04;;;;;;;18.52;11.35;;;;;;;5.71;78.97;101263.14;1744637;82;20885;-80
2022/04/15 02:44:31;;;;;;;15.35;10.75;;;;;;;5.71;79.09;101267.04;1744646;81;20940;-80
2022/04/15 02:46:59;;;;;;;20.48;11.30;;;;;;;5.73;79.13;101265.24;1744826;82;20941;-79
2022/04/15 02:49:27;;;;;;;15.95;11.05;;;;;;;5.72;79.10;101261.80;1744787;81;20905;-82
2022/04/15 02:51:55;;;;;;;15.70;9.85;;;;;;;5.73;79.11;101261.34;1744738;82;21517;-80
2022/04/15 02:54:23;;;;;;;15.70;10.82;;;;;;;5.73;79.03;101265.24;1744618;81;21530;-80
2022/04/15 02:56:50;;;;;;;15.48;10.50;;;;;;;5.72;79.11;101262.25;1744352;81;20984;-80
2022/04/15 02:59:16;;;;;;;20.82;12.20;;;;;;;5.70;79.17;101266.19;1745066;81;20885;-79
2022/04/15 03:01:45;;;;;;;18.92;12.10;;;;;;;5.69;79.44;101266.23;1744739;82;21334;-80
2022/04/15 03:04:12;;;;;;;20.60;13.00;;;;;;;5.67;79.70;101262.39;1744659;82;21251;-80
2022/04/15 03:06:40;;;;;;;17.42;12.20;;;;;;;5.68;79.97;101262.78;1744826;81;20952;-79
2022/04/15 03:09:07;;;;;;;17.55;11.78;;;;;;;5.71;80.36;101264.44;1744728;82;20846;-79
2022/04/15 03:11:38;;;;;;;16.62;11.18;;;;;;;5.74;80.35;101269.11;1744730;82;20866;-79
2022/04/15 03:14:05;;;;;;;17.10;11.78;;;;;;;5.76;80.25;101267.78;1744811;80;20921;-80
2022/04/15 03:16:34;;;;;;;20.72;13.13;;;;;;;5.83;80.18;101271.89;1744816;81;20900;-80
2022/04/15 03:19:02;;;;;;;17.12;11.60;;;;;;;5.84;79.93;101277.48;1744619;82;20928;-79
2022/04/15 03:21:28;;;;;;;15.40;10.32;;;;;;;5.86;80.18;101277.45;1744937;82;20971;-79
2022/04/15 03:23:55;;;;;;;15.20;10.70;;;;;;;5.88;80.09;101275.66;1745052;82;20874;-81
2022/04/15 03:26:23;;;;;;;17.15;11.93;;;;;;;5.91;79.86;101282.06;1745672;81;20889;-80
2022/04/15 03:28:50;;;;;;;21.52;14.65;;;;;;;5.94;79.60;101280.69;1744716;82;21375;-81
2022/04/15 03:31:17;;;;;;;16.05;11.15;;;;;;;5.96;79.50;101280.23;1744615;81;20885;-81
2022/04/15 03:33:44;;;;;;;26.45;11.00;;;;;;;5.96;79.36;101287.58;1744818;82;20902;-80
2022/04/15 03:36:11;;;;;;;19.90;12.93;;;;;;;5.98;79.38;101287.09;1744729;82;20912;-80
2022/04/15 03:38:37;;;;;;;20.48;11.35;;;;;;;6.02;79.39;101281.32;1744675;82;21429;-81
2022/04/15 03:41:04;;;;;;;18.48;11.45;;;;;;;6.07;79.40;101291.17;1745106;82;21989;-80
2022/04/15 03:43:32;;;;;;;18.57;11.75;;;;;;;6.12;79.40;101290.57;1744618;82;20929;-80
2022/04/15 03:45:59;;;;;;;20.75;12.88;;;;;;;6.19;79.43;101291.23;1744803;82;21019;-80
2022/04/15 03:48:27;;;;;;;24.82;11.90;;;;;;;6.28;79.55;101288.80;1744735;80;20944;-80
2022/04/15 03:50:55;;;;;;;21.25;11.28;;;;;;;6.36;79.63;101292.86;1744667;81;20885;-80
2022/04/15 03:53:22;;;;;;;17.02;10.98;;;;;;;6.51;80.19;101302.38;1744688;82;21110;-78
2022/04/15 03:55:50;;;;;;;14.53;10.78;;;;;;;6.73;80.36;101302.54;1744523;82;20960;-81
2022/04/15 03:58:19;;;;;;;17.15;12.68;;;;;;;6.93;80.17;101298.80;1744694;82;20941;-80
2022/04/15 04:00:46;;;;;;;24.57;12.63;;;;;;;7.13;80.07;101298.13;1744633;81;21363;-80
2022/04/15 04:03:14;;;;;;;20.88;12.88;;;;;;;7.34;79.90;101303.52;1744690;81;20885;-80
2022/04/15 04:05:41;;;;;;;22.02;13.03;;;;;;;7.52;79.56;101310.68;1744651;81;21090;-80
2022/04/15 04:08:07;;;;;;;19.30;12.55;;;;;;;7.71;79.42;101306.92;1755710;80;20889;-82
2022/04/15 04:10:34;;;;;;;18.20;12.80;;;;;;;7.85;79.07;101303.83;1758246;81;20889;-81
2022/04/15 04:13:02;;;;;;;24.30;14.07;;;;;;;7.96;79.05;101304.27;1758126;80;20968;-80
2022/04/15 04:15:30;;;;;;;22.73;14.53;;;;;;;8.10;79.20;101307.65;1757989;81;21425;-80
2022/04/15 04:17:57;;;;;;;20.52;13.38;;;;;;;8.22;78.96;101316.30;1758239;81;21105;-80
2022/04/15 04:20:24;;;;;;;24.50;14.45;;;;;;;8.32;78.75;101316.81;1757945;81;20873;-80
2022/04/15 04:22:50;;;;;;;25.43;14.85;;;;;;;8.39;78.64;101310.42;1757959;81;20979;-80
2022/04/15 04:25:18;;;;;;;22.85;13.80;;;;;;;8.43;78.52;101315.96;1757945;80;20940;-80
2022/04/15 04:27:45;;;;;;;20.88;13.88;;;;;;;8.49;78.49;101323.56;1757895;81;20916;-81
2022/04/15 04:30:13;;;;;;;24.02;15.58;;;;;;;8.52;78.57;101319.97;1758049;81;21907;-80
2022/04/15 04:32:39;;;;;;;23.25;13.93;;;;;;;8.56;78.72;101318.94;1758109;81;21453;-81
2022/04/15 04:35:07;;;;;;;20.35;14.45;;;;;;;8.60;78.97;101316.57;1758000;80;20928;-81
2022/04/15 04:37:35;;;;;;;29.07;15.05;;;;;;;8.67;79.16;101318.48;1758014;81;20948;-81
2022/04/15 04:40:02;;;;;;;23.40;14.40;;;;;;;8.72;79.37;101320.47;1758247;81;20932;-81
2022/04/15 04:42:30;;;;;;;21.07;14.85;;;;;;;8.80;79.54;101322.30;1757830;81;20995;-80
2022/04/15 04:44:57;;;;;;;24.45;15.40;;;;;;;8.88;79.87;101325.45;1757780;81;20892;-82
2022/04/15 04:47:23;;;;;;;19.87;15.08;;;;;;;8.98;80.06;101322.02;1758080;81;21516;-80
2022/04/15 04:49:52;;;;;;;25.32;19.23;;;;;;;9.07;80.16;101321.63;1757830;81;20928;-81
2022/04/15 04:52:19;;;;;;;31.07;22.82;;;;;;;9.18;80.06;101325.09;1757997;81;20979;-79
2022/04/15 04:54:46;;;;;;;31.27;23.70;;;;;;;9.29;80.07;101328.53;1758086;81;21234;-82
2022/04/15 04:57:13;;;;;;;39.13;23.00;;;;;;;9.39;79.86;101310.21;1757891;80;20880;-81
2022/04/15 04:59:39;;;;;;;36.77;23.62;;;;;;;9.50;79.54;101313.67;1758021;81;21393;-81
2022/04/15 05:02:06;;;;;;;40.95;23.65;;;;;;;9.63;79.22;101317.91;1758188;81;21496;-80
2022/04/15 05:04:34;;;;;;;38.67;24.82;;;;;;;9.74;79.11;101315.66;1758062;81;20857;-80
2022/04/15 05:07:04;;;;;;;35.83;26.17;;;;;;;9.87;78.95;101309.38;1757821;81;20929;-81
2022/04/15 05:09:30;;;;;;;36.93;27.58;;;;;;;10.00;78.72;101313.59;1758183;81;20948;-82
2022/04/15 05:11:58;;;;;;;38.73;28.65;;;;;;;10.14;78.43;101319.05;1758075;81;20896;-81
2022/04/15 05:14:24;;;;;;;34.55;25.05;;;;;;;10.26;78.02;101313.69;1757965;81;20948;-81
2022/04/15 05:16:52;;;;;;;33.10;25.05;;;;;;;10.34;77.52;101320.30;1758039;81;20896;-81
2022/04/15 05:19:19;;;;;;;32.88;19.82;;;;;;;10.43;77.39;101320.32;1758124;81;21109;-81
2022/04/15 05:21:47;;;;;;;29.52;18.73;;;;;;;10.49;76.86;101325.72;1758013;80;20849;-81
2022/04/15 05:24:14;;;;;;;23.92;16.23;;;;;;;10.53;76.65;101325.96;1757970;81;21405;-80
2022/04/15 05:26:40;;;;;;;31.75;18.30;;;;;;;10.56;76.64;101325.36;1758015;81;20905;-80
2022/04/15 05:29:08;;;;;;;22.85;14.75;;;;;;;10.57;76.58;101326.20;1758046;81;20850;-80
2022/04/15 05:31:35;;;;;;;24.32;14.93;;;;;;;10.63;76.42;101327.22;1758028;81;21920;-82
2022/04/15 05:34:04;;;;;;;18.52;12.98;;;;;;;10.71;76.29;101332.92;1757984;81;20964;-81
2022/04/15 05:36:30;;;;;;;18.92;11.48;;;;;;;10.78;75.97;101332.16;1759587;81;20916;-82
2022/04/15 05:38:57;;;;;;;24.02;14.33;;;;;;;10.85;75.53;101334.89;1759741;81;20845;-81
2022/04/15 05:41:25;;;;;;;18.98;11.30;;;;;;;10.87;75.18;101331.73;1761530;80;20947;-81
2022/04/15 05:43:51;;;;;;;13.55;10.68;;;;;;;10.92;74.57;101334.13;1761166;80;21176;-80
2022/04/15 05:46:19;;;;;;;16.60;10.88;;;;;;;10.89;74.28;101329.00;1758104;81;21010;-81
2022/04/15 05:48:46;;;;;;;13.25;10.55;;;;;;;10.88;74.29;101328.16;1758036;80;20849;-81
2022/04/15 05:51:12;;;;;;;12.00;10.75;;;;;;;10.89;74.27;101336.41;1758096;80;20935;-80
2022/04/15 05:53:39;;;;;;;15.78;10.28;;;;;;;10.91;73.83;101336.34;1758076;80;21007;-81
2022/04/15 05:56:06;;;;;;;14.73;10.08;;;;;;;10.94;73.53;101334.89;1757995;81;21923;-81
2022/04/15 05:58:33;;;;;;;15.00;9.10;;;;;;;10.95;73.09;101339.20;1757959;81;20912;-81
2022/04/15 06:00:59;;;;;;;16.65;10.48;;;;;;;10.95;72.87;101346.61;1758445;81;21023;-82
2022/04/15 06:03:32;;;;;;;18.35;9.53;;;;;;;10.94;73.03;101344.92;1758000;81;20861;-81
2022/04/15 06:06:00;;;;;;;13.75;10.15;;;;;;;10.99;72.90;101340.75;1758438;80;21014;-81
2022/04/15 06:08:27;;;;;;;13.60;8.88;;;;;;;11.02;72.88;101338.44;1748847;81;21161;-81
2022/04/15 06:10:55;;;;;;;12.85;8.75;;;;;;;11.07;72.74;101343.86;1744617;82;20928;-81
2022/04/15 06:13:26;;;;;;;13.45;9.98;;;;;;;11.10;72.51;101341.06;1744759;81;21023;-82
2022/04/15 06:16:00;;;;;;;15.45;9.50;;;;;;;11.16;72.06;101340.76;1744586;81;20944;-82
2022/04/15 06:18:24;;;;;;;12.73;9.18;;;;;;;11.28;71.85;101347.62;1743702;81;20928;-80
2022/04/15 06:20:53;;;;;;;15.68;9.13;;;;;;;11.38;71.41;101340.95;1744820;81;20869;-81
2022/04/15 06:23:20;;;;;;;15.45;9.23;;;;;;;11.48;71.09;101343.49;1744691;81;21462;-81
2022/04/15 06:25:46;;;;;;;15.25;8.98;;;;;;;11.59;70.67;101345.56;1744634;82;20889;-81
2022/04/15 06:28:15;;;;;;;12.07;9.38;;;;;;;11.72;70.27;101351.03;1744518;82;20896;-81
2022/04/15 06:30:41;;;;;;;12.35;9.40;;;;;;;11.88;69.52;101349.77;1744922;81;20980;-82
2022/04/15 06:33:09;;;;;;;16.02;9.25;;;;;;;12.01;68.85;101349.02;1744786;81;21230;-82
2022/04/15 06:35:37;;;;;;;13.40;9.00;;;;;;;12.17;68.57;101352.13;1745055;81;20944;-82
2022/04/15 06:38:03;;;;;;;14.40;11.28;;;;;;;12.29;68.10;101355.37;1745148;81;20913;-79
2022/04/15 06:40:30;;;;;;;22.00;15.13;;;;;;;12.42;67.76;101348.97;1745162;82;20897;-82
2022/04/15 06:42:56;;;;;;;23.45;16.25;;;;;;;12.53;67.46;101352.33;1745009;81;20861;-81
2022/04/15 06:45:24;;;;;;;29.15;20.10;;;;;;;12.60;66.77;101349.72;1744646;81;21227;-81
2022/04/15 06:47:51;;;;;;;35.15;20.48;;;;;;;12.65;66.64;101354.27;1744435;82;20977;-81
2022/04/15 06:50:19;;;;;;;33.85;24.72;;;;;;;12.70;66.20;101357.95;1745294;82;20826;-82
2022/04/15 06:52:45;;;;;;;36.10;24.32;;;;;;;12.71;65.94;101353.90;1744956;81;20998;-83
2022/04/15 06:55:13;;;;;;;39.18;26.40;;;;;;;12.75;65.70;101351.95;1744644;81;20975;-82
2022/04/15 06:57:40;;;;;;;36.98;25.10;;;;;;;12.78;65.26;101359.66;1744856;80;22057;-82
2022/04/15 07:00:08;;;;;;;32.65;22.77;;;;;;;12.83;65.17;101353.69;1744740;82;20878;-81
2022/04/15 07:02:35;;;;;;;28.83;20.27;;;;;;;12.91;65.14;101355.86;1744615;82;20901;-83
2022/04/15 07:05:05;;;;;;;29.92;20.40;;;;;;;12.99;65.07;101361.06;1744598;82;21421;-82
2022/04/15 07:07:34;;;;;;;36.23;23.57;;;;;;;13.09;64.96;101356.57;1747423;81;20849;-81
2022/04/15 07:10:04;;;;;;;34.63;21.60;;;;;;;13.18;64.56;101361.29;1758067;81;21335;-81
2022/04/15 07:12:31;;;;;;;32.80;20.52;;;;;;;13.30;64.48;101359.30;1757980;80;20975;-81
2022/04/15 07:14:58;;;;;;;31.77;19.80;;;;;;;13.43;64.26;101362.89;1758199;81;21390;-81
2022/04/15 07:17:25;;;;;;;38.53;22.82;;;;;;;13.57;64.57;101357.26;1758048;81;20943;-82
2022/04/15 07:19:52;;;;;;;37.95;24.27;;;;;;;13.79;63.26;101355.00;1758192;81;20928;-83
2022/04/15 07:22:19;;;;;;;44.15;26.70;;;;;;;13.79;63.26;101355.00;1758399;81;21102;-82
2022/04/15 07:24:46;;;;;;;40.23;24.90;;;;;;;13.91;62.57;101359.97;1758288;81;20849;-81
2022/04/15 07:27:13;;;;;;;43.20;28.83;;;;;;;14.06;62.44;101358.17;1758264;81;20901;-82
2022/04/15 07:29:39;;;;;;;45.65;30.75;;;;;;;14.23;62.19;101365.04;1758548;81;21135;-81
2022/04/15 07:32:07;;;;;;;47.90;25.02;;;;;;;14.30;61.28;101361.90;1758181;81;20896;-82
2022/04/15 07:34:37;;;;;;;39.20;26.87;;;;;;;14.39;61.01;101367.55;1758422;81;21306;-81
2022/04/15 07:37:05;;;;;;;42.65;24.32;;;;;;;14.50;60.48;101361.94;1758446;80;20853;-81
2022/04/15 07:39:32;;;;;;;44.08;26.27;;;;;;;14.67;60.43;101357.38;1758435;81;20947;-82
2022/04/15 07:41:59;;;;;;;42.58;24.90;;;;;;;14.78;59.87;101360.64;1758356;81;21050;-83
2022/04/15 07:44:26;;;;;;;35.85;23.57;;;;;;;14.92;58.35;101362.75;1758567;81;20849;-82
2022/04/15 07:46:55;;;;;;;38.83;25.15;;;;;;;14.92;58.35;101362.75;1758217;81;21393;-81
2022/04/15 07:49:21;;;;;;;40.35;24.90;;;;;;;14.97;58.36;101363.77;1758192;81;20966;-81
2022/04/15 07:51:53;;;;;;;32.30;21.90;;;;;;;14.98;58.11;101358.00;1758463;80;20869;-82
2022/04/15 07:54:20;;;;;;;31.42;21.62;;;;;;;14.96;57.96;101359.41;1758093;81;20909;-83
2022/04/15 07:56:47;;;;;;;26.80;16.57;;;;;;;14.95;57.68;101360.86;1758105;81;20892;-82
2022/04/15 07:59:13;;;;;;;16.97;13.90;;;;;;;14.94;57.63;101354.73;1758165;81;21090;-83
2022/04/15 08:01:41;;;;;;;12.00;9.88;;;;;;;14.93;57.29;101359.63;1758119;81;21473;-81
2022/04/15 08:04:08;;;;;;;17.05;9.78;;;;;;;14.87;56.78;101353.42;1757874;80;20881;-81
2022/04/15 08:06:35;;;;;;;16.07;10.95;;;;;;;14.80;56.62;101353.47;1758429;81;21112;-82
2022/04/15 08:09:04;;;;;;;28.42;18.48;;;;;;;14.74;57.05;101352.54;1749259;81;20944;-82
2022/04/15 08:11:31;;;;;;;22.13;13.28;;;;;;;14.68;57.38;101351.17;1744929;82;21248;-82
2022/04/15 08:13:57;;;;;;;14.20;11.65;;;;;;;14.68;57.38;101351.17;1745064;82;20976;-81
2022/04/15 08:16:25;;;;;;;14.83;11.93;;;;;;;14.64;57.52;101354.47;1745171;81;20889;-81
2022/04/15 08:18:51;;;;;;;17.10;13.65;;;;;;;14.62;57.78;101352.40;1744726;81;21425;-83
2022/04/15 08:21:19;;;;;;;18.70;15.45;;;;;;;14.61;57.62;101348.08;1744813;80;21023;-80
2022/04/15 08:23:47;;;;;;;18.42;14.23;;;;;;;14.58;57.02;101344.30;1745093;81;20845;-81
2022/04/15 08:26:17;;;;;;;16.25;12.70;;;;;;;14.58;57.02;101344.30;1744932;80;20912;-81
2022/04/15 08:28:43;;;;;;;17.48;12.90;;;;;;;14.56;57.42;101344.03;1745660;80;20865;-81
2022/04/15 08:31:10;;;;;;;15.68;13.13;;;;;;;14.57;57.59;101344.42;1745600;82;20979;-81
2022/04/15 08:33:37;;;;;;;19.90;13.55;;;;;;;14.61;57.70;101341.97;1746524;82;20908;-82
2022/04/15 08:36:05;;;;;;;18.70;13.98;;;;;;;14.65;57.08;101347.39;1746338;82;22042;-82
2022/04/15 08:38:32;;;;;;;15.48;12.53;;;;;;;14.68;56.94;101342.77;1746339;82;20968;-82
2022/04/15 08:41:01;;;;;;;16.17;12.20;;;;;;;14.68;56.94;101342.77;1746446;81;20932;-82
2022/04/15 08:43:29;;;;;;;13.55;11.65;;;;;;;14.71;57.21;101337.27;1746889;81;20908;-80
2022/04/15 08:45:56;;;;;;;18.17;12.13;;;;;;;14.76;56.82;101346.69;1746675;81;20901;-81
2022/04/15 08:48:24;;;;;;;15.88;13.22;;;;;;;14.76;56.82;101346.69;1746498;82;21239;-82
2022/04/15 08:50:52;;;;;;;17.42;12.98;;;;;;;14.80;57.33;101343.74;1747762;82;20900;-81
2022/04/15 08:53:23;;;;;;;14.50;11.57;;;;;;;14.81;57.21;101338.84;1747672;82;20905;-81
2022/04/15 08:55:51;;;;;;;13.05;11.63;;;;;;;14.83;57.14;101340.91;1747725;79;20939;-81
2022/04/15 08:58:17;;;;;;;13.40;11.57;;;;;;;14.82;57.07;101334.41;1747860;80;20937;-81
2022/04/15 09:00:44;;;;;;;12.98;11.80;;;;;;;14.83;57.52;101334.31;1747369;80;21164;-81
2022/04/15 09:03:11;;;;;;;12.28;10.32;;;;;;;14.83;57.52;101334.31;1746412;81;20893;-80
2022/04/15 09:05:37;;;;;;;10.23;9.13;;;;;;;14.86;56.73;101331.45;1746884;81;20893;-80
2022/04/15 09:08:08;;;;;;;9.73;8.63;;;;;;;14.92;57.07;101332.86;1748391;81;21497;-81
2022/04/15 09:10:37;;;;;;;8.95;8.05;;;;;;;14.98;56.58;101332.91;1759734;81;20971;-82
2022/04/15 09:13:05;;;;;;;9.23;7.05;;;;;;;15.05;56.01;101328.89;1759714;81;21163;-82
2022/04/15 09:15:31;;;;;;;10.10;7.08;;;;;;;15.13;55.60;101323.47;1759440;81;20916;-82
2022/04/15 09:18:01;;;;;;;9.90;7.47;;;;;;;15.20;55.61;101324.38;1759653;80;20947;-82
2022/04/15 09:20:32;;;;;;;10.50;6.60;;;;;;;15.31;55.19;101330.61;1759743;81;20999;-83
2022/04/15 09:23:10;;;;;;;10.88;7.12;;;;;;;15.54;54.71;101323.75;1759524;80;20888;-82
2022/04/15 09:25:39;;;;;;;8.08;6.55;;;;;;;15.82;54.50;101319.67;1759273;81;21126;-81
2022/04/15 09:28:07;;;;;;;6.28;5.65;;;;;;;16.07;53.91;101326.69;1759036;81;20888;-81
2022/04/15 09:30:41;;;;;;;7.78;5.85;;;;;;;16.27;53.17;101320.80;1759429;81;20975;-81
2022/04/15 09:33:10;;;;;;;8.58;5.58;;;;;;;16.43;52.22;101319.22;1759402;80;21382;-81
2022/04/15 09:35:36;;;;;;;8.63;5.55;;;;;;;16.54;52.16;101325.02;1759182;80;20881;-81
2022/04/15 09:38:04;;;;;;;9.70;5.65;;;;;;;16.61;51.73;101320.12;1696691;83;21378;-82
2022/04/15 09:40:35;;;;;;;6.25;5.75;;;;;;;16.60;51.08;101329.04;1723134;83;21413;-81
2022/04/15 09:43:02;;;;;;;6.85;5.30;;;;;;;16.48;51.23;101319.72;1696685;82;21444;-82
2022/04/15 09:45:35;;;;;;;7.70;6.12;;;;;;;16.38;51.46;101320.02;1722646;83;20946;-82
2022/04/15 09:48:04;;;;;;;8.45;6.28;;;;;;;16.33;52.26;101316.39;1722403;82;20966;-82
2022/04/15 09:50:42;;;;;;;10.03;5.47;;;;;;;16.35;52.20;101317.12;1723270;83;20935;-82
2022/04/15 09:53:18;;;;;;;7.55;5.87;;;;;;;16.56;52.02;101308.55;1723118;83;20951;-82
2022/04/15 09:55:50;;;;;;;9.03;6.72;;;;;;;16.85;51.64;101311.72;1723613;82;20935;-80
2022/04/15 09:58:18;;;;;;;7.90;5.03;;;;;;;17.36;51.40;101314.45;1723190;83;20939;-81
2022/04/15 10:00:49;;;;;;;8.50;5.53;;;;;;;17.73;49.96;101312.42;1723407;82;20931;-82
2022/04/15 10:03:24;;;;;;;10.45;5.03;;;;;;;18.03;48.80;101305.68;1722508;82;22074;-81
2022/04/15 10:05:57;;;;;;;8.18;5.85;;;;;;;18.23;48.47;101312.86;1721951;83;21412;-83
2022/04/15 10:08:25;;;;;;;6.47;5.72;;;;;;;18.46;48.26;101307.97;1721310;82;20880;-83
2022/04/15 10:10:54;;;;;;;5.45;4.90;;;;;;;18.75;47.82;101306.88;1716821;83;20996;-81
2022/04/15 10:13:27;;;;;;;5.87;5.00;;;;;;;19.13;46.59;101297.51;1716672;83;20983;-81
2022/04/15 10:15:51;;;;;;;7.25;5.60;;;;;;;19.29;46.40;101305.02;1716223;82;21170;-82
2022/04/15 10:18:19;;;;;;;9.40;6.20;;;;;;;19.39;45.15;101304.58;1665467;83;20856;-82
2022/04/15 10:20:48;;;;;;;7.35;5.95;;;;;;;19.36;45.03;101291.03;1716599;82;20939;-80
2022/04/15 10:23:16;;;;;;;6.65;5.75;;;;;;;19.34;45.42;101293.48;1716600;83;20876;-82
2022/04/15 10:25:46;;;;;;;13.28;6.75;;;;;;;19.25;45.39;101299.10;1716584;82;20909;-82
2022/04/15 10:28:17;;;;;;;8.58;5.83;;;;;;;19.30;44.94;101291.59;1716998;83;21283;-81
2022/04/15 10:30:54;;;;;;;6.00;5.12;;;;;;;19.29;44.48;101301.85;1689015;83;20929;-83
2022/04/15 10:33:32;;;;;;;8.18;7.00;;;;;;;19.33;45.01;101287.81;1688953;83;21461;-81
2022/04/15 10:36:19;;;;;;;6.22;4.67;;;;;;;19.46;44.41;101291.09;1716823;83;20967;-82
2022/04/15 10:39:11;;;;;;;8.00;5.95;;;;;;;19.44;44.48;101289.89;1716786;82;20903;-81
2022/04/15 10:41:48;;;;;;;7.33;5.03;;;;;;;19.46;44.69;101292.43;1716751;83;21153;-82
2022/04/15 10:44:36;;;;;;;6.10;5.53;;;;;;;19.61;44.69;101297.75;1716926;83;20849;-81
2022/04/15 10:47:15;;;;;;;5.65;4.90;;;;;;;19.75;44.56;101288.58;1717077;83;21038;-82
2022/04/15 10:50:03;;;;;;;8.70;4.87;;;;;;;19.79;43.75;101291.33;1714771;83;20939;-82
2022/04/15 10:52:35;;;;;;;6.33;5.53;;;;;;;19.60;43.56;101284.07;1731094;82;20975;-81
2022/04/15 10:55:10;;;;;;;7.30;5.42;;;;;;;19.44;44.36;101281.08;1717502;82;21261;-82
2022/04/15 10:57:40;;;;;;;9.50;5.78;;;;;;;19.36;44.60;101279.56;1717258;82;20904;-81
2022/04/15 11:03:23;;;;;;;8.68;6.97;;;;;;;19.37;44.69;101275.94;1717065;83;20946;-82
2022/04/15 11:05:55;;;;;;;5.85;5.40;;;;;;;19.57;44.51;101259.57;1717016;82;20904;-81
2022/04/15 11:08:23;;;;;;;7.33;5.40;;;;;;;19.72;44.30;101266.23;1716512;82;21866;-80
2022/04/15 11:11:03;;;;;;;7.03;5.08;;;;;;;19.86;44.61;101261.84;1716424;83;21464;-83
2022/04/15 11:13:49;;;;;;;6.58;4.53;;;;;;;20.02;43.65;101263.97;1716947;83;21003;-82
2022/04/15 11:16:18;;;;;;;5.58;4.03;;;;;;;20.23;43.19;101274.99;1716544;83;20900;-82
2022/04/15 11:18:51;;;;;;;6.40;4.03;;;;;;;20.22;43.17;101276.82;1716667;82;21291;-81
2022/04/15 11:21:33;;;;;;;8.55;4.28;;;;;;;20.19;42.30;101269.12;1716698;82;21802;-81
2022/04/15 11:24:05;;;;;;;5.50;3.98;;;;;;;19.84;42.68;101258.47;1716476;83;20935;-81
2022/04/15 11:26:35;;;;;;;8.57;4.87;;;;;;;19.47;43.37;101264.84;1716645;83;20975;-80